x

La Have Bank (44150) Wave Buoy

7:00pm - Tue 23rd Sep 2014 All times are ADT. -3 hours from GMT.

  • Sig Wave height 6.6ft
  • Peak Period 10s
  • Wind
    20mph, 25mph gusts
  • Sea Temp 65°f
  • Air Temp 57°f
  • Sea Pressure 1024.4mb
  • La Have Bank
  • La Have Bank

More Historic Weather Station data

Upgrade to MSW Pro to gain access to the past 30 days of data for over 8000 Wavebouys and Weather Stations around the globe.

Join Pro

Comparision Forecast

View Surf forecast
   
Tue 09/23 7:00pm 6.5ft 10s 20 25 mph 1024.4mb 65f 57f
6:00pm 7ft 9s 18 22 mph 1023.7mb 65f 57f
5:00pm 7ft 9s 20 25 mph 1023.1mb 66f 58f
4:00pm 8.5ft 9s 18 25 mph 1022.6mb 66f 58f
3:00pm 8ft 8s 18 22 mph 1022.3mb 66f 58f
2:00pm 8ft 10s 18 25 mph 1022.1mb 65f 58f
1:00pm 8ft 10s 16 20 mph 1022.1mb 64f 57f
12:00pm 8ft 10s 18 22 mph 1021.7mb 64f 58f
11:00am 8ft 11s 16
mph
1021.4mb 64f 58f
10:00am 8ft 10s 16 20 mph 1020.8mb 63f 58f
9:00am 7.5ft 11s 16 20 mph 1019.9mb 63f 59f
8:00am 8ft 10s 16 20 mph 1019mb 63f 59f
7:00am 9ft 11s 16 20 mph 1018.4mb 63f 59f
6:00am 9ft 11s 16 18 mph 1017.4mb 64f 60f
5:00am 8.5ft 12s 16 18 mph 1016.8mb 64f 60f
4:00am 9.5ft 11s 16 18 mph 1016.1mb 65f 61f
3:00am 9.5ft 10s 18 20 mph 1015.6mb 67f 62f
2:00am 10.5ft 11s 20 25 mph 1015.1mb 67f 63f
1:00am 10.5ft 9s 20 25 mph 1014.1mb 69f 65f
12:00am 13ft 12s 22 27 mph 1013.4mb 69f 65f
Mon 09/22 11:00pm 13ft 11s 22 27 mph 1013mb 67f 66f
10:00pm 12ft 12s 18 22 mph 1012.3mb 65f 66f
9:00pm 13ft 12s 18 22 mph 1011.1mb 64f 65f
8:00pm 14ft 13s 20 25 mph 1009.8mb 63f 66f
7:00pm 15ft 12s 18 20 mph 1008.9mb 63f 66f
6:00pm 14ft 11s 16 20 mph 1008.2mb 63f 67f
5:00pm 15ft 13s 18 20 mph 1007.6mb 63f 69f
4:00pm 15.5ft 12s 18 22 mph 1008.2mb 63f 69f
3:00pm 16ft 11s 16 25 mph 1008.1mb 63f 68f
2:00pm 15.5ft 12s 25 31 mph 1007.6mb 65f 68f
1:00pm 15.5ft 11s 22 25 mph 1007.2mb 70f 68f
12:00pm 16ft 12s 25 29 mph 1006.6mb 71f 67f
11:00am 17.5ft 12s 22 27 mph 1005.7mb 71f 67f
10:00am 17.5ft 11s 27 31 mph 1004.3mb 71f 67f
9:00am 15ft 11s 27 36 mph 1002.4mb 71f 68f
8:00am 16.5ft 11s 22 27 mph 1001mb 72f 70f
7:00am 16.5ft 10s 27 34 mph 999.6mb 72f 70f
6:00am 16.5ft 10s 38 45 mph 998.2mb 72f 75f
5:00am 17ft 10s 36 45 mph 999.3mb 72f 76f
4:00am 15.5ft 9s 38 47 mph 999.8mb 72f 75f
3:00am 13ft 8s 40 47 mph 1001.4mb 72f 75f
2:00am 11.5ft 8s 38 47 mph 1003.5mb 71f 74f
1:00am 10.5ft 8s 36 43 mph 1005.1mb 71f 74f
12:00am 9ft 8s 36 43 mph 1006.2mb 71f 73f
Sun 09/21 11:00pm 7ft 7s 31 38 mph 1007.4mb 71f 73f
10:00pm 7ft 7s 25 29 mph 1008.7mb 71f 73f
9:00pm 7ft 6s 22 25 mph 1010.2mb 71f 72f
8:00pm 8ft 6s 22 27 mph 1010.9mb 71f 73f
7:00pm 6.5ft 6s 29 38 mph 1011.2mb 71f 73f
6:00pm 5.5ft 5s 27 34 mph 1012.4mb 70f 72f
5:00pm 5ft 5s 18 20 mph 1013.8mb 69f 72f
4:00pm 5ft 5s 13 16 mph 1015.2mb 69f 71f
3:00pm 5ft 5s 20 25 mph 1016.1mb 69f 71f
2:00pm 4ft 11s 27 31 mph 1017.4mb 68f 72f
1:00pm 3.5ft 6s 16 18 mph 1019mb 68f 72f
12:00pm 3.5ft 9s 16 18 mph 1019.7mb 67f 71f
11:00am 3.5ft 5s 16 18 mph 1020.4mb 65f 70f
10:00am 3.5ft 10s 13 16 mph 1020.9mb 64f 69f
9:00am 3.5ft 6s 11
mph
1021mb 64f 69f
8:00am 3.5ft 5s 9 11 mph 1021.2mb 64f 69f
7:00am 3.5ft 6s 11 13 mph 1021.3mb 64f 69f
6:00am 3.5ft 6s 13
mph
1021.2mb 64f 69f
5:00am 4ft 10s 11 13 mph 1021.4mb 64f 69f
4:00am 4ft 5s 11 13 mph 1021.8mb 65f 69f
3:00am 4ft 5s 13 18 mph 1022.6mb 67f 69f
2:00am 3.5ft 5s 18 22 mph 1023.4mb 68f 69f
1:00am 3.5ft 5s 16 20 mph 1023.7mb 68f 69f
12:00am 3.5ft 11s 13 18 mph 1024.2mb 67f 69f
Sat 09/20 11:00pm 3.5ft 5s 13 16 mph 1024.5mb 67f 68f
10:00pm 4.5ft 5s 13 18 mph 1024.9mb 67f 69f
9:00pm 4.5ft 5s 18 20 mph 1024.9mb 66f 69f
8:00pm 4.5ft 5s 18 22 mph 1025.1mb 66f 68f
7:00pm 4.5ft  -  18 20 mph 1025.3mb 66f 68f
6:00pm 4.5ft 5s 18 22 mph 1025.7mb 65f 68f
5:00pm 4ft 5s 20 25 mph 1026.1mb 65f 67f
4:00pm 4ft 4s 18 22 mph 1026.8mb 65f 66f
3:00pm 3.5ft 4s 18 20 mph 1027.2mb 65f 65f
2:00pm 3.5ft 4s 18 22 mph 1027.9mb 65f 64f
1:00pm 3.5ft 4s 16 22 mph 1029mb 65f 63f
12:00pm 3.5ft 4s 16 22 mph 1029.5mb 65f 62f
11:00am 3ft 12s 18 25 mph 1030.1mb 65f 62f
10:00am 2.5ft 8s 16 20 mph 1030.5mb 64f 61f
9:00am 2.5ft 8s 16 18 mph 1030.3mb 64f 60f
8:00am 2.5ft 5s 9 13 mph 1030.7mb 64f 59f
7:00am 3ft 8s 9 13 mph 1030.5mb 65f 58f
6:00am 3ft 5s 7 11 mph 1030.6mb 65f 58f
5:00am 3.5ft 6s 4 7 mph 1030.3mb 65f 57f
4:00am 3.5ft 5s 7 9 mph 1030mb 65f 57f
3:00am 3.5ft 6s 7 11 mph 1030.1mb 65f 56f
2:00am 3.5ft 6s 7 11 mph 1030.2mb 64f 56f
1:00am 4.5ft 5s 7 11 mph 1030.5mb 64f 56f
12:00am 4.5ft 6s 9 16 mph 1030.5mb 64f 55f